Time;durP1;ratioP1;P1;durP2;ratioP2;P2;SDS_P1;SDS_P2;PMS_P1;PMS_P2;Temp;Humidity;BMP_temperature;BMP_pressure;BME280_temperature;BME280_humidity;BME280_pressure;Samples;Min_cycle;Max_cycle;Signal;HPM_P1;HPM_P2
2023/03/30 00:00:55;;;;;;;9.60;8.70;;;10.80;1.00;;;;;;4927698;28;20566;-80
2023/03/30 00:03:22;;;;;;;9.50;8.50;;;10.80;1.00;;;;;;4931335;28;20477;-79
2023/03/30 00:05:51;;;;;;;8.90;8.10;;;10.80;1.00;;;;;;4929518;28;20477;-80
2023/03/30 00:08:18;;;;;;;10.80;9.80;;;10.70;1.00;;;;;;4927312;28;20952;-80
2023/03/30 00:10:46;;;;;;;9.27;8.37;;;10.60;1.00;;;;;;4926876;28;20455;-80
2023/03/30 00:13:15;;;;;;;9.90;8.60;;;10.60;1.00;;;;;;4929879;28;20529;-80
2023/03/30 00:15:42;;;;;;;8.87;8.07;;;10.60;1.00;;;;;;4903934;28;20462;-78
2023/03/30 00:18:10;;;;;;;10.17;9.17;;;10.70;1.00;;;;;;4917392;28;20500;-78
2023/03/30 00:20:41;;;;;;;10.97;9.53;;;10.60;1.00;;;;;;4928613;28;20453;-79
2023/03/30 00:23:08;;;;;;;10.70;8.20;;;10.60;1.00;;;;;;4926763;28;20473;-78
2023/03/30 00:25:35;;;;;;;8.90;7.50;;;10.60;1.00;;;;;;4924231;28;20461;-78
2023/03/30 00:28:02;;;;;;;9.77;8.80;;;10.50;1.00;;;;;;4923658;28;20476;-78
2023/03/30 00:30:31;;;;;;;10.50;9.50;;;10.50;1.00;;;;;;4929439;28;20466;-77
2023/03/30 00:32:58;;;;;;;9.93;8.93;;;10.50;1.00;;;;;;4917525;28;21528;-78
2023/03/30 00:35:29;;;;;;;9.73;8.40;;;10.40;1.00;;;;;;4918256;28;21059;-78
2023/03/30 00:37:56;;;;;;;11.60;9.23;;;10.20;1.00;;;;;;4928009;28;20471;-78
2023/03/30 00:40:24;;;;;;;9.47;8.27;;;10.20;1.00;;;;;;4931927;28;20478;-78
2023/03/30 00:42:50;;;;;;;9.70;8.80;;;10.30;1.00;;;;;;4932350;28;20482;-79
2023/03/30 00:45:22;;;;;;;9.40;8.47;;;10.20;1.00;;;;;;4933582;28;20537;-78
2023/03/30 00:48:02;;;;;;;9.27;8.37;;;10.20;1.00;;;;;;4933118;28;20464;-79
2023/03/30 00:50:34;;;;;;;10.50;9.40;;;10.00;1.00;;;;;;4932293;28;20451;-77
2023/03/30 00:53:07;;;;;;;9.40;8.43;;;10.00;1.00;;;;;;4928555;28;21408;-80
2023/03/30 00:55:37;;;;;;;10.10;9.10;;;9.90;1.00;;;;;;4931267;28;21236;-78
2023/03/30 00:58:06;;;;;;;9.70;8.80;;;9.90;1.00;;;;;;4931147;28;20455;-78
2023/03/30 01:00:33;;;;;;;9.50;8.43;;;9.80;1.00;;;;;;4929828;28;21889;-78
2023/03/30 01:03:10;;;;;;;9.93;8.67;;;9.70;1.00;;;;;;4917861;28;20530;-78
2023/03/30 01:05:40;;;;;;;10.77;9.10;;;9.70;1.00;;;;;;4923608;28;20471;-78
2023/03/30 01:08:07;;;;;;;10.43;8.17;;;9.80;1.00;;;;;;4934162;28;20479;-78
2023/03/30 01:10:35;;;;;;;10.20;9.13;;;9.90;1.00;;;;;;4929211;28;20521;-78
2023/03/30 01:13:02;;;;;;;10.73;8.80;;;9.80;1.00;;;;;;4927385;28;20481;-78
2023/03/30 01:15:34;;;;;;;11.00;8.90;;;9.70;1.00;;;;;;4928347;28;21069;-77
2023/03/30 01:18:18;;;;;;;9.90;8.90;;;9.70;1.00;;;;;;4923919;28;21394;-77
2023/03/30 01:21:22;;;;;;;10.00;9.00;;;9.70;1.00;;;;;;4930649;28;20472;-77
2023/03/30 01:24:41;;;;;;;10.17;9.13;;;9.80;1.00;;;;;;4930529;28;20473;-77
2023/03/30 01:27:25;;;;;;;10.63;9.63;;;9.80;1.00;;;;;;4922717;28;23097;-77
2023/03/30 01:30:13;;;;;;;10.47;8.50;;;9.70;1.00;;;;;;4927436;28;20499;-78
2023/03/30 01:33:09;;;;;;;12.30;9.73;;;9.80;1.00;;;;;;4928075;28;20570;-78
2023/03/30 01:36:14;;;;;;;13.30;9.40;;;9.80;1.00;;;;;;4926834;28;20477;-77
2023/03/30 01:39:13;;;;;;;8.80;7.90;;;9.80;1.00;;;;;;4926381;28;20971;-78
2023/03/30 01:41:51;;;;;;;9.97;8.90;;;9.60;1.00;;;;;;4928778;28;20476;-78
2023/03/30 01:44:29;;;;;;;9.63;8.63;;;9.60;1.00;;;;;;4927768;28;21911;-78
2023/03/30 01:47:00;;;;;;;10.53;9.40;;;9.50;1.00;;;;;;4925936;28;20481;-79
2023/03/30 01:49:31;;;;;;;11.27;10.07;;;9.50;1.00;;;;;;4928796;28;20471;-77
2023/03/30 01:52:05;;;;;;;10.07;9.03;;;9.50;1.00;;;;;;4928407;28;20526;-77
2023/03/30 01:54:39;;;;;;;10.90;9.13;;;9.40;1.00;;;;;;4931726;28;21257;-77
2023/03/30 01:57:12;;;;;;;12.47;10.10;;;9.30;1.00;;;;;;4928619;28;20566;-76
2023/03/30 01:59:43;;;;;;;10.17;8.57;;;9.30;1.00;;;;;;4931627;28;20473;-77
2023/03/30 02:02:13;;;;;;;10.13;8.60;;;9.30;1.00;;;;;;4929683;28;20453;-76
2023/03/30 02:04:44;;;;;;;11.00;9.47;;;9.30;1.00;;;;;;4932894;28;20461;-78
2023/03/30 02:07:16;;;;;;;11.30;8.90;;;9.30;1.00;;;;;;4927003;28;21016;-77
2023/03/30 02:09:46;;;;;;;10.03;8.97;;;9.30;1.00;;;;;;4928647;28;20840;-78
2023/03/30 02:12:14;;;;;;;11.07;8.63;;;9.30;1.00;;;;;;4930685;28;20966;-77
2023/03/30 02:14:41;;;;;;;11.73;9.23;;;9.30;1.00;;;;;;4928189;28;20442;-77
2023/03/30 02:17:15;;;;;;;9.83;8.83;;;9.40;1.00;;;;;;4925863;28;20486;-77
2023/03/30 02:19:46;;;;;;;12.97;10.07;;;9.40;1.00;;;;;;4925338;28;20506;-77
2023/03/30 02:22:15;;;;;;;10.53;8.20;;;9.40;1.00;;;;;;4926840;28;20558;-77
2023/03/30 02:24:46;;;;;;;9.97;8.80;;;9.40;1.00;;;;;;4926267;28;20538;-77
2023/03/30 02:27:13;;;;;;;10.90;8.53;;;9.40;1.00;;;;;;4921326;28;21234;-77
2023/03/30 02:29:43;;;;;;;10.27;9.20;;;9.50;1.00;;;;;;4911706;28;20466;-77
2023/03/30 02:32:16;;;;;;;11.17;9.97;;;9.40;1.00;;;;;;4928796;28;21252;-78
2023/03/30 02:35:00;;;;;;;12.43;9.60;;;9.50;1.00;;;;;;4913122;28;20480;-78
2023/03/30 02:37:53;;;;;;;11.10;9.47;;;9.40;1.00;;;;;;4924175;28;20537;-78
2023/03/30 02:40:37;;;;;;;10.40;9.27;;;9.40;1.00;;;;;;4924914;28;20540;-77
2023/03/30 02:43:25;;;;;;;11.70;10.20;;;9.40;1.00;;;;;;4931220;28;20564;-78
2023/03/30 02:46:00;;;;;;;12.10;9.70;;;9.40;1.00;;;;;;4926805;28;21228;-77
2023/03/30 02:48:39;;;;;;;12.33;9.70;;;9.30;1.00;;;;;;4927610;28;20564;-78
2023/03/30 02:51:26;;;;;;;13.10;9.97;;;9.30;1.00;;;;;;4929429;28;20438;-77
2023/03/30 02:53:58;;;;;;;11.40;10.20;;;9.30;1.00;;;;;;4923691;28;22261;-77
2023/03/30 02:56:36;;;;;;;12.97;10.50;;;9.20;1.00;;;;;;4926144;28;21228;-78
2023/03/30 02:59:08;;;;;;;10.53;8.93;;;9.20;1.00;;;;;;4928675;28;20564;-78
2023/03/30 03:01:40;;;;;;;12.30;10.07;;;9.20;1.00;;;;;;4924167;28;20497;-78
2023/03/30 03:04:10;;;;;;;13.00;10.87;;;9.20;1.00;;;;;;4927472;28;20478;-79
2023/03/30 03:06:42;;;;;;;12.60;9.60;;;9.20;1.00;;;;;;4927613;28;20458;-78
2023/03/30 03:09:10;;;;;;;12.17;10.53;;;9.20;1.00;;;;;;4930649;28;20963;-78
2023/03/30 03:11:38;;;;;;;12.73;11.10;;;9.10;1.00;;;;;;4924213;28;20556;-78
2023/03/30 03:14:06;;;;;;;13.00;10.43;;;9.10;1.00;;;;;;4930296;29;21243;-78
2023/03/30 03:16:33;;;;;;;11.37;10.17;;;9.10;1.00;;;;;;4926113;28;21914;-77
2023/03/30 03:19:00;;;;;;;11.30;9.57;;;9.10;1.00;;;;;;4928579;28;20478;-77
2023/03/30 03:21:27;;;;;;;13.23;10.30;;;9.10;1.00;;;;;;4925621;28;20562;-77
2023/03/30 03:23:55;;;;;;;13.13;10.90;;;9.10;1.00;;;;;;4923133;28;20553;-77
2023/03/30 03:26:22;;;;;;;12.73;10.50;;;9.20;1.00;;;;;;4930337;28;20480;-77
2023/03/30 03:28:51;;;;;;;12.40;10.37;;;9.10;1.00;;;;;;4927457;28;20457;-79
2023/03/30 03:31:19;;;;;;;13.47;11.33;;;9.10;1.00;;;;;;4927839;28;20458;-77
2023/03/30 03:33:45;;;;;;;13.10;9.97;;;9.10;1.00;;;;;;4929323;28;20466;-77
2023/03/30 03:36:12;;;;;;;12.17;10.23;;;9.10;1.00;;;;;;4923736;28;20470;-78
2023/03/30 03:38:40;;;;;;;12.00;10.10;;;9.10;1.00;;;;;;4928395;28;20485;-77
2023/03/30 03:41:08;;;;;;;12.27;10.40;;;9.20;1.00;;;;;;4932319;28;20469;-77
2023/03/30 03:43:35;;;;;;;13.83;10.53;;;9.20;1.00;;;;;;4931741;28;20549;-78
2023/03/30 03:46:07;;;;;;;12.97;10.73;;;9.20;1.00;;;;;;4927365;28;20470;-78
2023/03/30 03:48:34;;;;;;;14.17;11.37;;;9.20;1.00;;;;;;4930645;28;20561;-78
2023/03/30 03:51:04;;;;;;;13.13;10.50;;;9.30;1.00;;;;;;4929465;28;20477;-79
2023/03/30 03:53:32;;;;;;;14.53;10.27;;;9.30;1.00;;;;;;4929714;28;20462;-79
2023/03/30 03:56:00;;;;;;;13.93;10.60;;;9.30;1.00;;;;;;4925205;28;20553;-78
2023/03/30 03:58:28;;;;;;;13.10;10.53;;;9.30;1.00;;;;;;4927856;28;21282;-78
2023/03/30 04:00:58;;;;;;;12.93;10.77;;;9.20;1.00;;;;;;4929852;28;21072;-78
2023/03/30 04:03:27;;;;;;;14.37;10.73;;;9.20;1.00;;;;;;4923794;28;20482;-77
2023/03/30 04:05:54;;;;;;;15.43;11.40;;;9.20;1.00;;;;;;4921798;28;20776;-78
2023/03/30 04:08:21;;;;;;;15.33;11.07;;;9.20;1.00;;;;;;4928121;28;21234;-79
2023/03/30 04:10:49;;;;;;;11.90;9.87;;;9.20;1.00;;;;;;4922005;28;20463;-78
2023/03/30 04:13:16;;;;;;;12.43;11.00;;;9.20;1.00;;;;;;4920748;28;20473;-78
2023/03/30 04:15:44;;;;;;;13.70;11.50;;;9.30;1.00;;;;;;4921777;28;20458;-78
2023/03/30 04:18:14;;;;;;;12.33;10.13;;;9.30;1.00;;;;;;4924936;28;20466;-77
2023/03/30 04:20:44;;;;;;;13.77;9.70;;;9.40;1.00;;;;;;4924856;28;20572;-76
2023/03/30 04:23:20;;;;;;;11.90;9.70;;;9.40;1.00;;;;;;4916873;28;20478;-77
2023/03/30 04:25:47;;;;;;;11.40;9.50;;;9.40;1.00;;;;;;4911045;28;21255;-76
2023/03/30 04:28:20;;;;;;;12.13;10.83;;;9.50;1.00;;;;;;4917406;28;20466;-77
2023/03/30 04:30:47;;;;;;;10.67;9.50;;;9.60;1.00;;;;;;4914459;28;20465;-76
2023/03/30 04:33:14;;;;;;;11.93;9.93;;;9.50;1.00;;;;;;4921227;28;20470;-77
2023/03/30 04:35:43;;;;;;;11.93;9.90;;;9.50;1.00;;;;;;4923081;28;20557;-76
2023/03/30 04:38:11;;;;;;;14.23;9.83;;;9.50;1.00;;;;;;4920548;28;20474;-77
2023/03/30 04:40:39;;;;;;;11.10;9.90;;;9.60;1.00;;;;;;4928748;28;20465;-77
2023/03/30 04:43:07;;;;;;;12.50;10.60;;;9.60;1.00;;;;;;4927362;28;20486;-77
2023/03/30 04:45:35;;;;;;;10.93;9.00;;;9.60;1.00;;;;;;4914070;28;20458;-77
2023/03/30 04:48:03;;;;;;;14.70;11.10;;;9.60;1.00;;;;;;4924372;28;20471;-78
2023/03/30 04:50:30;;;;;;;13.67;11.17;;;9.60;1.00;;;;;;4921097;28;20897;-77
2023/03/30 04:53:00;;;;;;;13.17;9.50;;;9.50;1.00;;;;;;4918548;28;20473;-77
2023/03/30 04:55:28;;;;;;;10.60;9.30;;;9.60;1.00;;;;;;4920281;28;20502;-77
2023/03/30 04:57:57;;;;;;;12.63;10.23;;;9.50;1.00;;;;;;4908738;28;20493;-78
2023/03/30 05:00:26;;;;;;;19.67;10.17;;;9.40;1.00;;;;;;4916307;28;21318;-76
2023/03/30 05:02:54;;;;;;;11.87;9.90;;;9.40;1.00;;;;;;4924025;28;20850;-77
2023/03/30 05:05:22;;;;;;;10.33;9.17;;;9.80;1.00;;;;;;4924235;28;20458;-76
2023/03/30 05:07:49;;;;;;;13.13;9.63;;;9.80;1.00;;;;;;4918189;28;20798;-77
2023/03/30 05:10:20;;;;;;;12.00;10.17;;;9.70;1.00;;;;;;4914135;28;20541;-76
2023/03/30 05:12:47;;;;;;;11.20;8.90;;;9.70;1.00;;;;;;4914812;28;20573;-76
2023/03/30 05:15:14;;;;;;;10.50;9.40;;;9.60;1.00;;;;;;4910308;28;20474;-77
2023/03/30 05:17:42;;;;;;;10.97;9.47;;;9.60;1.00;;;;;;4919313;28;20537;-77
2023/03/30 05:20:10;;;;;;;9.60;8.53;;;9.70;1.00;;;;;;4921366;28;21821;-76
2023/03/30 05:22:41;;;;;;;11.73;9.20;;;9.70;1.00;;;;;;4925727;28;21361;-77
2023/03/30 05:25:08;;;;;;;11.87;10.20;;;9.70;1.00;;;;;;4922480;28;20522;-77
2023/03/30 05:27:37;;;;;;;11.33;9.10;;;9.70;1.00;;;;;;4920891;28;20484;-77
2023/03/30 05:30:07;;;;;;;10.67;9.57;;;9.80;1.00;;;;;;4923040;28;21291;-77
2023/03/30 05:32:34;;;;;;;10.93;9.80;;;9.80;1.00;;;;;;4924095;28;20967;-78
2023/03/30 05:35:01;;;;;;;10.73;8.23;;;9.90;1.00;;;;;;4918011;28;20489;-78
2023/03/30 05:37:29;;;;;;;23.00;20.87;;;10.00;1.00;;;;;;4926857;28;20473;-79
2023/03/30 05:39:56;;;;;;;10.67;8.10;;;10.00;1.00;;;;;;4919342;28;20910;-79
2023/03/30 05:42:24;;;;;;;10.07;8.97;;;10.00;1.00;;;;;;4921864;28;20473;-77
2023/03/30 05:44:52;;;;;;;10.90;8.70;;;10.10;1.00;;;;;;4922984;28;20454;-78
2023/03/30 05:47:19;;;;;;;11.43;7.70;;;10.20;1.00;;;;;;4918013;28;20470;-79
2023/03/30 05:49:46;;;;;;;10.77;8.47;;;10.20;1.00;;;;;;4921240;28;20469;-79
2023/03/30 05:52:13;;;;;;;9.27;8.00;;;10.30;1.00;;;;;;4920037;28;20466;-78
2023/03/30 05:54:41;;;;;;;10.77;9.13;;;10.30;1.00;;;;;;4918162;28;20471;-78
2023/03/30 05:57:08;;;;;;;11.20;7.97;;;10.30;1.00;;;;;;4920500;28;20712;-78
2023/03/30 05:59:36;;;;;;;9.83;8.40;;;10.30;1.00;;;;;;4931425;28;20966;-78
2023/03/30 06:02:05;;;;;;;9.20;8.07;;;10.30;1.00;;;;;;4927528;28;20479;-79
2023/03/30 06:04:33;;;;;;;8.23;7.40;;;10.30;1.00;;;;;;4927279;28;20461;-78
2023/03/30 06:07:00;;;;;;;9.60;7.77;;;10.40;1.00;;;;;;4923688;28;20533;-79
2023/03/30 06:09:27;;;;;;;10.70;8.47;;;10.30;1.00;;;;;;4923290;28;21337;-78
2023/03/30 06:11:54;;;;;;;8.77;7.50;;;10.40;1.00;;;;;;4921653;28;20505;-79
2023/03/30 06:14:21;;;;;;;10.63;8.90;;;10.40;1.00;;;;;;4921770;28;20502;-78
2023/03/30 06:16:48;;;;;;;10.27;7.93;;;10.40;1.00;;;;;;4925130;28;20577;-78
2023/03/30 06:19:19;;;;;;;12.47;8.17;;;10.50;1.00;;;;;;4920033;28;20553;-79
2023/03/30 06:21:46;;;;;;;9.87;7.20;;;10.50;1.00;;;;;;4920681;28;20466;-79
2023/03/30 06:24:14;;;;;;;9.17;7.47;;;10.50;1.00;;;;;;4922541;28;20966;-79
2023/03/30 06:26:41;;;;;;;8.70;7.47;;;10.60;1.00;;;;;;4925961;28;20484;-78
2023/03/30 06:29:08;;;;;;;13.93;7.47;;;10.60;1.00;;;;;;4919088;28;20450;-79
2023/03/30 06:31:35;;;;;;;10.70;7.83;;;10.60;1.00;;;;;;4927983;28;21378;-78
2023/03/30 06:34:03;;;;;;;9.57;7.87;;;10.80;1.00;;;;;;4920612;28;20473;-79
2023/03/30 06:36:31;;;;;;;15.37;8.07;;;10.90;1.00;;;;;;4927328;28;20481;-79
2023/03/30 06:38:58;;;;;;;8.57;6.57;;;10.80;1.00;;;;;;4921760;28;20471;-79
2023/03/30 06:41:25;;;;;;;11.00;7.60;;;10.90;1.00;;;;;;4921368;28;21213;-79
2023/03/30 06:43:52;;;;;;;9.47;7.40;;;11.00;1.00;;;;;;4922719;28;21062;-78
2023/03/30 06:46:19;;;;;;;8.27;7.27;;;11.30;1.00;;;;;;4924796;28;21408;-81
2023/03/30 06:48:47;;;;;;;9.20;7.23;;;11.30;1.00;;;;;;4927265;28;20509;-84
2023/03/30 06:51:16;;;;;;;10.90;7.03;;;11.40;1.00;;;;;;4924490;28;20477;-79
2023/03/30 06:53:48;;;;;;;10.17;8.27;;;11.50;1.00;;;;;;4924338;28;20542;-81
2023/03/30 06:56:15;;;;;;;10.33;6.77;;;11.50;1.00;;;;;;4926034;28;20534;-82
2023/03/30 06:58:42;;;;;;;13.53;6.87;;;11.60;1.00;;;;;;4925105;28;20465;-81
2023/03/30 07:01:10;;;;;;;12.23;8.40;;;11.60;1.00;;;;;;4924505;28;20531;-83
2023/03/30 07:03:40;;;;;;;10.57;7.90;;;11.60;1.00;;;;;;4928144;28;20669;-82
2023/03/30 07:06:09;;;;;;;9.23;6.90;;;11.60;1.00;;;;;;4921169;28;20478;-83
2023/03/30 07:08:37;;;;;;;7.33;6.43;;;11.60;1.00;;;;;;4917004;28;20465;-81
2023/03/30 07:11:08;;;;;;;11.27;8.20;;;11.30;1.00;;;;;;4929602;28;20470;-81
2023/03/30 07:13:36;;;;;;;11.83;7.43;;;11.20;1.00;;;;;;4934347;28;20529;-78
2023/03/30 07:16:03;;;;;;;10.47;6.40;;;11.30;1.00;;;;;;4927399;28;20494;-82
2023/03/30 07:18:30;;;;;;;8.10;6.77;;;11.30;1.00;;;;;;4932874;28;20484;-81
2023/03/30 07:20:59;;;;;;;8.67;6.80;;;11.30;1.00;;;;;;4933221;28;20560;-83
2023/03/30 07:23:26;;;;;;;11.57;7.20;;;11.30;1.00;;;;;;4932382;28;20509;-81
2023/03/30 07:25:53;;;;;;;9.53;6.90;;;11.50;1.00;;;;;;4928146;28;20542;-81
2023/03/30 07:28:21;;;;;;;9.53;6.50;;;11.60;1.00;;;;;;4926073;28;20466;-82
2023/03/30 07:30:51;;;;;;;8.77;7.00;;;11.80;1.00;;;;;;4928944;28;20467;-80
2023/03/30 07:33:20;;;;;;;9.60;6.50;;;11.90;1.00;;;;;;4922483;28;20439;-83
2023/03/30 07:35:48;;;;;;;8.33;6.63;;;12.10;1.00;;;;;;4934932;28;20506;-80
2023/03/30 07:38:16;;;;;;;7.30;6.50;;;12.30;1.00;;;;;;4940608;28;20483;-82
2023/03/30 07:40:43;;;;;;;9.90;7.33;;;12.40;1.00;;;;;;4934178;28;20463;-81
2023/03/30 07:43:11;;;;;;;8.27;5.70;;;12.60;1.00;;;;;;4936832;28;20491;-81
2023/03/30 07:45:42;;;;;;;7.33;6.53;;;12.70;1.00;;;;;;4931313;28;21185;-82
2023/03/30 07:48:10;;;;;;;7.00;6.30;;;12.80;1.00;;;;;;4935308;28;20504;-79
2023/03/30 07:50:37;;;;;;;13.53;6.60;;;13.00;1.00;;;;;;4933163;28;20528;-79
2023/03/30 07:53:04;;;;;;;11.30;6.53;;;13.30;1.00;;;;;;4932146;28;21252;-81
2023/03/30 07:55:31;;;;;;;8.60;5.87;;;13.70;1.00;;;;;;4932995;28;20471;-80
2023/03/30 07:57:58;;;;;;;10.33;6.60;;;13.80;1.00;;;;;;4934718;28;20500;-82
2023/03/30 08:00:26;;;;;;;8.70;6.20;;;13.80;1.00;;;;;;4935505;28;20567;-81
2023/03/30 08:02:54;;;;;;;8.70;6.33;;;13.80;1.00;;;;;;4933370;28;20453;-82
2023/03/30 08:05:21;;;;;;;7.80;6.50;;;13.90;1.00;;;;;;4933694;28;20633;-83
2023/03/30 08:07:48;;;;;;;7.83;5.70;;;13.80;1.00;;;;;;4939365;28;20441;-82
2023/03/30 08:10:21;;;;;;;7.67;6.40;;;13.60;1.00;;;;;;4931848;28;20472;-81
2023/03/30 08:12:49;;;;;;;8.00;6.10;;;13.50;1.00;;;;;;4935679;28;20457;-82
2023/03/30 08:15:16;;;;;;;8.50;6.30;;;13.60;1.00;;;;;;4926764;28;20537;-82
2023/03/30 08:17:43;;;;;;;8.03;6.40;;;13.70;1.00;;;;;;4933849;28;20449;-82
2023/03/30 08:20:12;;;;;;;8.17;5.60;;;13.80;1.00;;;;;;4935641;28;20447;-81
2023/03/30 08:22:39;;;;;;;17.50;6.90;;;13.90;1.00;;;;;;4935226;28;20524;-81
2023/03/30 08:25:06;;;;;;;7.43;5.97;;;14.10;1.00;;;;;;4925143;28;20586;-79
2023/03/30 08:27:33;;;;;;;9.53;5.90;;;14.30;1.00;;;;;;4934674;28;21241;-79
2023/03/30 08:30:00;;;;;;;9.47;5.90;;;14.50;1.00;;;;;;4932585;28;20530;-80
2023/03/30 08:32:30;;;;;;;7.10;5.63;;;14.70;1.00;;;;;;4936499;29;20470;-77
2023/03/30 08:34:56;;;;;;;11.53;6.10;;;14.90;1.00;;;;;;4931763;28;20499;-78
2023/03/30 08:37:25;;;;;;;7.73;5.90;;;15.00;1.00;;;;;;4932525;28;20894;-78
2023/03/30 08:39:52;;;;;;;8.40;5.53;;;15.20;1.00;;;;;;4931060;28;20537;-77
2023/03/30 08:42:46;;;;;;;7.27;5.53;;;15.40;1.00;;;;;;4931533;28;20470;-78
2023/03/30 08:45:13;;;;;;;6.40;4.63;;;15.70;1.00;;;;;;4930054;28;20484;-78
2023/03/30 08:47:47;;;;;;;8.70;5.10;;;15.90;1.00;;;;;;4930255;28;20469;-79
2023/03/30 08:50:17;;;;;;;9.07;4.83;;;16.20;1.00;;;;;;4934261;28;20930;-79
2023/03/30 08:52:47;;;;;;;6.03;4.63;;;16.30;1.00;;;;;;4933324;28;20458;-79
2023/03/30 08:55:26;;;;;;;6.23;4.60;;;16.60;1.00;;;;;;4937038;28;20475;-79
2023/03/30 08:58:00;;;;;;;4.93;4.23;;;17.00;1.00;;;;;;4932270;28;20451;-79
2023/03/30 09:00:38;;;;;;;6.40;4.57;;;17.50;1.00;;;;;;4932428;28;20467;-78
2023/03/30 09:03:14;;;;;;;7.23;4.33;;;17.90;1.00;;;;;;4934718;28;20558;-77
2023/03/30 09:05:49;;;;;;;6.30;3.53;;;17.90;1.00;;;;;;4935265;28;20526;-79
2023/03/30 09:08:21;;;;;;;5.27;3.90;;;18.00;1.00;;;;;;4917350;29;20503;-78
2023/03/30 09:10:53;;;;;;;11.60;4.70;;;18.20;1.00;;;;;;4917450;29;20481;-79
2023/03/30 09:13:24;;;;;;;6.37;4.30;;;18.40;1.00;;;;;;4934127;28;20464;-78
2023/03/30 09:15:57;;;;;;;6.10;3.70;;;18.60;1.00;;;;;;4935016;28;20445;-78
2023/03/30 09:18:30;;;;;;;6.73;4.30;;;18.70;1.00;;;;;;4932682;28;20426;-78
2023/03/30 09:21:00;;;;;;;8.53;3.50;;;18.80;1.00;;;;;;4937557;28;20465;-78
2023/03/30 09:23:30;;;;;;;8.77;3.87;;;18.80;1.00;;;;;;4934180;28;20458;-78
2023/03/30 09:26:07;;;;;;;8.27;4.20;;;18.80;1.00;;;;;;4931650;28;20481;-79
2023/03/30 09:28:42;;;;;;;5.63;3.63;;;19.00;1.00;;;;;;4930386;28;20555;-78
2023/03/30 09:31:14;;;;;;;8.13;3.80;;;19.10;1.00;;;;;;4935454;28;20469;-80
2023/03/30 09:33:48;;;;;;;7.00;3.77;;;19.30;1.00;;;;;;4932307;28;20484;-79
2023/03/30 09:36:17;;;;;;;8.90;3.53;;;19.40;1.00;;;;;;4935340;28;20535;-78
2023/03/30 09:38:47;;;;;;;6.97;4.87;;;19.50;1.00;;;;;;4935120;28;20466;-78
2023/03/30 09:41:29;;;;;;;8.23;3.97;;;19.30;1.00;;;;;;4935150;28;20454;-78
2023/03/30 09:43:59;;;;;;;7.60;4.27;;;19.30;1.00;;;;;;4915863;28;21571;-79
2023/03/30 09:46:27;;;;;;;10.10;4.13;;;19.50;1.00;;;;;;4933469;28;20462;-83
2023/03/30 09:49:11;;;;;;;5.20;3.43;;;19.50;1.00;;;;;;4938036;28;21219;-82
2023/03/30 09:51:54;;;;;;;8.60;5.23;;;18.90;1.00;;;;;;4934053;28;20527;-82
2023/03/30 09:54:25;;;;;;;8.77;4.40;;;18.30;1.00;;;;;;4931459;28;20472;-82
2023/03/30 09:56:55;;;;;;;13.00;4.37;;;18.20;1.00;;;;;;4936426;28;20516;-80
2023/03/30 09:59:30;;;;;;;6.80;3.97;;;18.20;1.00;;;;;;4937687;28;20471;-82
2023/03/30 10:02:40;;;;;;;8.03;3.93;;;18.40;1.00;;;;;;4934196;28;20459;-82
2023/03/30 10:05:17;;;;;;;7.37;3.73;;;18.60;1.00;;;;;;4930229;29;20520;-79
2023/03/30 10:07:52;;;;;;;8.30;3.93;;;18.50;1.00;;;;;;4937131;28;20440;-80
2023/03/30 10:10:32;;;;;;;8.03;4.07;;;18.20;1.00;;;;;;4930091;28;20528;-79
2023/03/30 10:13:05;;;;;;;12.60;4.80;;;18.00;1.00;;;;;;4932915;28;21750;-80
2023/03/30 10:15:34;;;;;;;5.60;3.80;;;17.80;1.00;;;;;;4931364;28;20492;-79
2023/03/30 10:18:14;;;;;;;5.27;3.70;;;17.80;1.00;;;;;;4938655;28;20450;-81
2023/03/30 10:20:44;;;;;;;9.77;4.43;;;17.60;1.00;;;;;;4937386;28;20438;-80
2023/03/30 10:23:17;;;;;;;5.73;3.90;;;17.50;1.00;;;;;;4936548;28;20494;-81
2023/03/30 10:25:48;;;;;;;5.73;3.40;;;17.30;1.00;;;;;;4936847;28;20434;-81
2023/03/30 10:28:20;;;;;;;8.13;4.00;;;17.20;1.00;;;;;;4932963;28;21342;-80
2023/03/30 10:30:52;;;;;;;10.93;3.73;;;17.00;1.00;;;;;;4931879;28;20458;-80
2023/03/30 10:33:21;;;;;;;5.07;3.50;;;17.00;1.00;;;;;;4934381;28;20535;-80
2023/03/30 10:35:52;;;;;;;7.83;3.73;;;17.10;1.00;;;;;;4934582;28;20471;-80
2023/03/30 10:38:20;;;;;;;5.30;3.63;;;17.10;1.00;;;;;;4932524;28;20485;-79
2023/03/30 10:40:54;;;;;;;6.07;4.10;;;17.20;1.00;;;;;;4933423;28;20451;-79
2023/03/30 10:43:27;;;;;;;5.87;4.20;;;17.20;1.00;;;;;;4912973;28;20471;-80
2023/03/30 10:45:56;;;;;;;6.90;3.73;;;17.20;1.00;;;;;;4933817;28;20502;-80
2023/03/30 10:48:34;;;;;;;7.50;3.70;;;17.30;1.00;;;;;;4933787;28;21325;-80
2023/03/30 10:51:11;;;;;;;7.03;3.90;;;17.40;1.00;;;;;;4934434;28;20468;-79
2023/03/30 10:53:46;;;;;;;5.27;3.80;;;17.50;1.00;;;;;;4937274;29;20432;-81
2023/03/30 10:56:26;;;;;;;6.97;3.73;;;17.80;1.00;;;;;;4937517;28;20439;-79
2023/03/30 10:59:15;;;;;;;6.27;3.50;;;17.90;1.00;;;;;;4936849;29;20470;-80
2023/03/30 11:01:53;;;;;;;8.27;3.90;;;17.80;1.00;;;;;;4935171;29;20519;-80
2023/03/30 11:04:26;;;;;;;9.37;4.00;;;17.90;1.00;;;;;;4934446;28;20506;-81
2023/03/30 11:06:56;;;;;;;5.67;3.33;;;18.30;1.00;;;;;;4932370;28;20596;-81
2023/03/30 11:09:35;;;;;;;5.53;3.90;;;19.00;1.00;;;;;;4934482;29;20487;-80
2023/03/30 11:12:06;;;;;;;9.93;4.80;;;19.80;1.00;;;;;;4935989;28;21045;-80
2023/03/30 11:14:43;;;;;;;4.80;3.63;;;20.30;1.00;;;;;;4925650;28;20622;-80
2023/03/30 11:17:16;;;;;;;6.97;3.70;;;19.90;1.00;;;;;;4933943;28;21230;-81
2023/03/30 11:19:50;;;;;;;8.17;3.73;;;19.40;1.00;;;;;;4939714;28;20484;-79
2023/03/30 11:22:30;;;;;;;6.67;3.70;;;18.90;1.00;;;;;;4908719;29;20470;-80
2023/03/30 11:24:59;;;;;;;8.63;4.47;;;18.50;1.00;;;;;;4938180;29;20435;-80
2023/03/30 11:27:38;;;;;;;8.03;5.50;;;18.40;1.00;;;;;;4940598;29;20437;-81
2023/03/30 11:30:13;;;;;;;5.80;3.73;;;18.60;1.00;;;;;;4934556;29;20542;-83
2023/03/30 11:32:48;;;;;;;6.20;4.10;;;19.00;1.00;;;;;;4940418;28;20490;-81
2023/03/30 11:35:20;;;;;;;6.80;4.13;;;19.40;1.00;;;;;;4934654;28;20780;-80
2023/03/30 11:37:55;;;;;;;4.70;3.40;;;19.40;1.00;;;;;;4936311;28;20473;-81
2023/03/30 11:40:27;;;;;;;6.70;3.53;;;19.40;1.00;;;;;;4940637;29;20470;-80
2023/03/30 11:42:56;;;;;;;8.50;4.00;;;19.40;1.00;;;;;;4937873;29;20430;-79
2023/03/30 11:45:41;;;;;;;7.63;4.80;;;19.20;1.00;;;;;;4934464;28;20480;-80
2023/03/30 11:48:28;;;;;;;5.50;3.50;;;19.60;1.00;;;;;;4925853;28;20441;-80
2023/03/30 11:51:19;;;;;;;5.73;4.07;;;20.90;1.00;;;;;;4935341;28;20618;-81
2023/03/30 11:53:57;;;;;;;6.97;3.53;;;23.00;1.00;;;;;;4935139;29;20478;-81
2023/03/30 11:56:45;;;;;;;6.67;3.63;;;24.60;1.00;;;;;;4928351;28;20506;-81
2023/03/30 11:59:26;;;;;;;5.03;3.60;;;25.30;1.00;;;;;;4912273;28;20439;-81
2023/03/30 12:02:09;;;;;;;5.20;3.37;;;24.70;1.00;;;;;;4939329;28;20522;-81
2023/03/30 12:04:43;;;;;;;7.40;4.30;;;25.20;1.00;;;;;;4938340;29;20475;-81
2023/03/30 12:07:19;;;;;;;7.63;3.90;;;26.30;1.00;;;;;;4939903;28;20488;-81
2023/03/30 12:09:53;;;;;;;5.20;3.70;;;26.90;1.00;;;;;;4940595;28;20516;-80
2023/03/30 12:12:31;;;;;;;4.07;3.57;;;26.20;1.00;;;;;;4930114;29;20483;-81
2023/03/30 12:15:31;;;;;;;6.57;3.67;;;26.40;1.00;;;;;;4925398;29;20951;-81
2023/03/30 12:18:04;;;;;;;4.60;3.60;;;27.60;1.00;;;;;;4933383;28;20452;-81
2023/03/30 12:20:40;;;;;;;7.23;3.43;;;28.70;1.00;;;;;;4937540;28;20453;-81
2023/03/30 12:23:30;;;;;;;6.70;4.03;;;29.10;1.00;;;;;;4939554;28;20509;-82
2023/03/30 12:26:26;;;;;;;5.30;3.73;;;30.00;1.00;;;;;;4929807;28;20485;-82
2023/03/30 12:28:58;;;;;;;7.47;4.47;;;30.40;1.00;;;;;;4939124;28;20502;-82
2023/03/30 12:32:00;;;;;;;7.47;4.00;;;31.00;1.00;;;;;;4940123;28;20903;-82
2023/03/30 12:34:34;;;;;;;3.23;2.90;;;31.80;1.00;;;;;;4938432;29;20477;-82
2023/03/30 12:37:08;;;;;;;3.80;3.00;;;32.00;1.00;;;;;;4938624;28;20453;-81
2023/03/30 12:39:47;;;;;;;7.07;3.67;;;31.70;1.00;;;;;;4937332;28;20836;-81
2023/03/30 12:42:33;;;;;;;5.77;3.70;;;32.10;1.00;;;;;;4936934;29;20495;-82
2023/03/30 12:45:24;;;;;;;6.50;3.17;;;30.30;1.00;;;;;;4937577;28;20481;-82
2023/03/30 12:48:18;;;;;;;6.27;3.47;;;30.00;1.00;;;;;;4939953;29;20466;-81
2023/03/30 12:50:59;;;;;;;5.40;3.20;;;29.70;1.00;;;;;;4939016;28;20632;-81
2023/03/30 12:53:59;;;;;;;5.97;4.67;;;29.10;1.00;;;;;;4938141;29;20508;-81
2023/03/30 12:56:35;;;;;;;5.90;3.17;;;27.90;1.00;;;;;;4936662;28;20490;-82
2023/03/30 12:59:32;;;;;;;3.57;3.23;;;27.00;1.00;;;;;;4936786;28;20440;-82
2023/03/30 13:02:31;;;;;;;5.00;3.03;;;27.10;1.00;;;;;;4927943;28;20537;-81
2023/03/30 13:04:58;;;;;;;5.47;3.30;;;29.70;1.00;;;;;;4925192;28;20499;-81
2023/03/30 13:07:30;;;;;;;4.47;3.20;;;31.00;1.00;;;;;;4935588;29;20485;-81
2023/03/30 13:10:01;;;;;;;5.53;3.53;;;30.80;1.00;;;;;;4933835;28;20485;-80
2023/03/30 13:12:36;;;;;;;6.53;3.30;;;29.90;1.00;;;;;;4933967;28;20499;-82
2023/03/30 13:15:32;;;;;;;5.60;4.10;;;28.40;1.00;;;;;;4934495;28;20472;-83
2023/03/30 13:18:01;;;;;;;3.43;3.10;;;27.90;1.00;;;;;;4935467;28;21000;-81
2023/03/30 13:20:32;;;;;;;10.27;4.50;;;27.40;1.00;;;;;;4939159;28;20461;-81
2023/03/30 13:23:23;;;;;;;5.53;3.53;;;26.30;1.00;;;;;;4934810;28;20516;-81